Time;durP1;ratioP1;P1;durP2;ratioP2;P2;SDS_P1;SDS_P2;PMS_P1;PMS_P2;Temp;Humidity;BMP_temperature;BMP_pressure;BME280_temperature;BME280_humidity;BME280_pressure;Samples;Min_cycle;Max_cycle;Signal;HPM_P1;HPM_P2
2022/05/03 00:01:08;;;;;;;9.23;3.53;;;;;;;;;;5070218;28;20057;-60
2022/05/03 00:03:38;;;;;;;5.93;2.90;;;;;;;;;;5068748;28;20129;-60
2022/05/03 00:06:18;;;;;;;5.93;3.35;;;;;;;;;;5069829;28;20226;-60
2022/05/03 00:08:48;;;;;;;8.38;3.90;;;;;;;;;;5069397;28;20088;-60
2022/05/03 00:11:24;;;;;;;6.32;3.40;;;;;;;;;;5068711;28;20053;-60
2022/05/03 00:14:26;;;;;;;5.95;3.17;;;;;;;;;;5089727;28;20143;-60
2022/05/03 00:16:53;;;;;;;8.35;3.42;;;;;;;;;;5026840;28;20144;-60
2022/05/03 00:19:19;;;;;;;5.97;3.45;;;;;;;;;;5076620;28;20084;-61
2022/05/03 00:21:45;;;;;;;6.22;3.55;;;;;;;;;;5083191;28;20111;-60
2022/05/03 00:24:12;;;;;;;7.88;3.97;;;;;;;;;;5070009;28;20535;-60
2022/05/03 00:26:38;;;;;;;7.28;3.70;;;;;;;;;;5069526;28;20087;-60
2022/05/03 00:29:05;;;;;;;7.57;3.60;;;;;;;;;;5068754;28;20158;-60
2022/05/03 00:31:31;;;;;;;8.30;4.25;;;;;;;;;;5068642;28;20088;-60
2022/05/03 00:33:58;;;;;;;6.35;3.00;;;;;;;;;;5069251;28;20439;-60
2022/05/03 00:36:24;;;;;;;5.50;2.88;;;;;;;;;;5068167;28;20103;-60
2022/05/03 00:38:51;;;;;;;6.20;3.13;;;;;;;;;;5069506;28;20053;-60
2022/05/03 00:41:33;;;;;;;6.05;3.20;;;;;;;;;;5068421;28;20180;-60
2022/05/03 00:44:02;;;;;;;6.60;3.17;;;;;;;;;;5068751;28;20085;-60
2022/05/03 00:46:31;;;;;;;6.55;3.08;;;;;;;;;;5069492;28;20135;-60
2022/05/03 00:49:00;;;;;;;6.63;3.50;;;;;;;;;;5069038;28;20053;-60
2022/05/03 00:51:47;;;;;;;7.60;3.42;;;;;;;;;;5068093;28;21930;-60
2022/05/03 00:54:25;;;;;;;6.95;3.55;;;;;;;;;;5054188;28;20496;-60
2022/05/03 00:56:52;;;;;;;;;;;;;;;;;;5069684;28;20057;-60
2022/05/03 00:59:21;;;;;;;6.05;3.35;;;;;;;;;;5067447;28;42220;-60
2022/05/03 01:01:53;;;;;;;8.05;3.70;;;;;;;;;;5067124;28;20080;-60
2022/05/03 01:04:23;;;;;;;6.53;3.70;;;;;;;;;;5068032;28;20061;-60
2022/05/03 01:06:55;;;;;;;8.02;3.47;;;;;;;;;;5068008;28;20077;-60
2022/05/03 01:09:31;;;;;;;8.43;4.70;;;;;;;;;;5069047;28;20144;-60
2022/05/03 01:12:04;;;;;;;9.32;4.45;;;;;;;;;;5067386;28;20056;-60
2022/05/03 01:14:50;;;;;;;9.82;4.20;;;;;;;;;;5068249;28;20503;-60
2022/05/03 01:17:45;;;;;;;7.38;3.75;;;;;;;;;;5068214;28;20142;-60
2022/05/03 01:20:15;;;;;;;9.10;3.90;;;;;;;;;;5050530;28;20064;-60
2022/05/03 01:23:00;;;;;;;7.68;3.90;;;;;;;;;;5068188;28;20068;-60
2022/05/03 01:25:46;;;;;;;7.25;4.45;;;;;;;;;;5068368;28;20080;-60
2022/05/03 01:28:12;;;;;;;7.03;4.00;;;;;;;;;;5066812;28;20579;-60
2022/05/03 01:30:45;;;;;;;8.50;4.55;;;;;;;;;;5068236;28;20140;-60
2022/05/03 01:33:16;;;;;;;8.65;4.10;;;;;;;;;;5066903;28;20051;-60
2022/05/03 01:35:45;;;;;;;10.35;5.07;;;;;;;;;;5068288;28;20084;-60
2022/05/03 01:38:19;;;;;;;8.38;4.82;;;;;;;;;;5067341;28;20081;-60
2022/05/03 01:40:54;;;;;;;8.38;4.75;;;;;;;;;;5067638;28;20087;-60
2022/05/03 01:43:31;;;;;;;7.63;4.47;;;;;;;;;;5067519;28;20053;-60
2022/05/03 01:45:57;;;;;;;9.52;4.63;;;;;;;;;;5067960;28;20099;-60
2022/05/03 01:50:18;;;;;;;8.30;4.78;;;;;;;;;;5067141;28;20045;-60
2022/05/03 01:51:19;;;;;;;10.13;4.72;;;;;;;;;;5067357;28;20581;-58
2022/05/03 01:53:46;;;;;;;11.10;5.47;;;;;;;;;;5067553;28;20452;-58
2022/05/03 01:56:32;;;;;;;9.07;4.82;;;;;;;;;;5067898;28;20048;-58
2022/05/03 01:59:04;;;;;;;10.25;4.72;;;;;;;;;;5067961;28;20531;-59
2022/05/03 02:01:39;;;;;;;7.65;4.30;;;;;;;;;;5067185;28;20095;-59
2022/05/03 02:04:15;;;;;;;10.63;4.93;;;;;;;;;;5068066;28;20517;-58
2022/05/03 02:06:50;;;;;;;11.50;4.55;;;;;;;;;;5067282;28;20057;-58
2022/05/03 02:09:20;;;;;;;9.23;4.47;;;;;;;;;;5067338;28;20115;-60
2022/05/03 02:12:00;;;;;;;9.00;4.50;;;;;;;;;;5066097;28;20084;-58
2022/05/03 02:14:45;;;;;;;8.63;4.60;;;;;;;;;;5068047;28;20165;-59
2022/05/03 02:17:17;;;;;;;13.77;4.82;;;;;;;;;;5070394;28;20053;-58
2022/05/03 02:19:53;;;;;;;9.80;4.93;;;;;;;;;;5070092;28;20060;-58
2022/05/03 02:22:22;;;;;;;9.60;4.32;;;;;;;;;;5069776;28;21107;-58
2022/05/03 02:25:07;;;;;;;8.55;4.53;;;;;;;;;;5071090;28;20486;-58
2022/05/03 02:27:35;;;;;;;8.60;4.40;;;;;;;;;;5070571;28;20089;-59
2022/05/03 02:30:02;;;;;;;10.33;5.63;;;;;;;;;;5071163;28;20526;-58
2022/05/03 02:32:47;;;;;;;9.20;5.00;;;;;;;;;;5070381;28;20108;-58
2022/05/03 02:35:19;;;;;;;9.95;4.80;;;;;;;;;;5070544;28;20080;-58
2022/05/03 02:37:49;;;;;;;8.23;4.20;;;;;;;;;;5070400;28;20140;-58
2022/05/03 02:40:18;;;;;;;8.98;4.47;;;;;;;;;;5070807;28;20565;-59
2022/05/03 02:42:45;;;;;;;9.18;4.72;;;;;;;;;;5070861;28;20462;-59
2022/05/03 02:45:12;;;;;;;10.00;4.78;;;;;;;;;;5069304;28;20068;-58
2022/05/03 02:47:51;;;;;;;9.57;5.15;;;;;;;;;;5070590;28;20060;-59
2022/05/03 02:50:18;;;;;;;9.82;5.07;;;;;;;;;;5069697;28;20143;-58
2022/05/03 02:52:57;;;;;;;9.68;5.20;;;;;;;;;;5070709;28;20518;-59
2022/05/03 02:55:38;;;;;;;8.60;5.00;;;;;;;;;;5070573;28;20219;-58
2022/05/03 02:58:08;;;;;;;12.45;5.32;;;;;;;;;;5070447;28;20490;-58
2022/05/03 03:03:42;;;;;;;10.57;5.32;;;;;;;;;;5070601;28;20060;-58
2022/05/03 03:06:17;;;;;;;9.02;4.80;;;;;;;;;;5069399;28;20067;-58
2022/05/03 03:08:44;;;;;;;10.48;5.20;;;;;;;;;;5069483;28;20131;-58
2022/05/03 03:11:28;;;;;;;9.48;5.15;;;;;;;;;;5069811;28;20141;-58
2022/05/03 03:14:13;;;;;;;11.85;5.50;;;;;;;;;;5069314;28;20596;-58
2022/05/03 03:16:46;;;;;;;12.52;4.43;;;;;;;;;;5069563;28;20488;-58
2022/05/03 03:19:46;;;;;;;10.18;5.25;;;;;;;;;;5069145;28;20060;-58
2022/05/03 03:22:14;;;;;;;10.57;4.85;;;;;;;;;;5025135;28;20136;-58
2022/05/03 03:24:41;;;;;;;9.68;4.95;;;;;;;;;;5070201;28;20644;-59
2022/05/03 03:27:11;;;;;;;10.30;5.15;;;;;;;;;;5069618;28;20061;-59
2022/05/03 03:29:38;;;;;;;9.65;5.03;;;;;;;;;;5069514;28;20076;-60
2022/05/03 03:32:06;;;;;;;10.75;5.50;;;;;;;;;;5068971;28;20507;-60
2022/05/03 03:34:32;;;;;;;9.80;4.97;;;;;;;;;;5069874;28;20562;-60
2022/05/03 03:37:02;;;;;;;12.35;4.93;;;;;;;;;;5069362;28;20473;-60
2022/05/03 03:39:29;;;;;;;11.48;5.88;;;;;;;;;;5069524;28;20057;-59
2022/05/03 03:41:56;;;;;;;9.80;5.13;;;;;;;;;;5068966;28;20139;-60
2022/05/03 03:44:23;;;;;;;8.80;5.05;;;;;;;;;;5069804;28;20081;-59
2022/05/03 03:46:49;;;;;;;10.95;5.85;;;;;;;;;;5069930;28;21863;-59
2022/05/03 03:49:15;;;;;;;8.43;5.15;;;;;;;;;;5069645;28;20523;-60
2022/05/03 03:51:42;;;;;;;9.10;5.05;;;;;;;;;;5069487;28;20072;-59
2022/05/03 03:54:09;;;;;;;9.43;5.40;;;;;;;;;;5068867;28;21872;-59
2022/05/03 03:56:35;;;;;;;9.82;5.55;;;;;;;;;;5069625;28;20123;-59
2022/05/03 03:59:02;;;;;;;9.18;5.32;;;;;;;;;;5069285;28;20088;-60
2022/05/03 04:01:28;;;;;;;10.88;5.30;;;;;;;;;;5068127;28;20481;-59
2022/05/03 04:03:54;;;;;;;8.50;4.63;;;;;;;;;;5069159;28;20061;-59
2022/05/03 04:06:21;;;;;;;9.27;5.20;;;;;;;;;;5069664;28;20278;-60
2022/05/03 04:08:47;;;;;;;10.65;5.50;;;;;;;;;;5069066;28;20080;-59
2022/05/03 04:11:17;;;;;;;9.43;5.00;;;;;;;;;;5069026;28;20207;-59
2022/05/03 04:13:43;;;;;;;8.98;5.43;;;;;;;;;;5068255;28;20157;-59
2022/05/03 04:16:10;;;;;;;11.55;5.75;;;;;;;;;;5069367;28;20088;-59
2022/05/03 04:18:46;;;;;;;10.32;5.68;;;;;;;;;;5068792;28;20103;-60
2022/05/03 04:21:17;;;;;;;10.15;5.25;;;;;;;;;;5068369;28;20909;-59
2022/05/03 04:23:46;;;;;;;10.35;5.93;;;;;;;;;;5068395;28;20092;-60
2022/05/03 04:26:12;;;;;;;11.57;6.40;;;;;;;;;;5068512;28;20487;-60
2022/05/03 04:28:39;;;;;;;9.35;5.93;;;;;;;;;;5069363;28;20508;-59
2022/05/03 04:31:05;;;;;;;12.13;6.07;;;;;;;;;;5068544;28;20099;-59
2022/05/03 04:33:32;;;;;;;12.45;6.20;;;;;;;;;;5068402;28;20063;-59
2022/05/03 04:35:58;;;;;;;11.05;6.57;;;;;;;;;;5068755;28;20148;-59
2022/05/03 04:38:25;;;;;;;11.07;5.78;;;;;;;;;;5068597;28;20282;-59
2022/05/03 04:40:58;;;;;;;11.40;6.95;;;;;;;;;;5069394;28;20076;-59
2022/05/03 04:43:25;;;;;;;11.05;5.93;;;;;;;;;;5068740;28;20132;-59
2022/05/03 04:45:51;;;;;;;11.38;6.32;;;;;;;;;;5068250;28;20053;-59
2022/05/03 04:48:18;;;;;;;12.38;7.20;;;;;;;;;;5068017;28;20076;-60
2022/05/03 04:50:44;;;;;;;10.45;6.30;;;;;;;;;;5068001;28;20088;-60
2022/05/03 04:53:10;;;;;;;14.43;6.90;;;;;;;;;;5068747;28;20906;-60
2022/05/03 04:55:37;;;;;;;12.55;6.95;;;;;;;;;;5069005;28;20139;-60
2022/05/03 04:58:04;;;;;;;13.15;7.50;;;;;;;;;;5068593;28;20069;-60
2022/05/03 05:00:30;;;;;;;12.90;7.25;;;;;;;;;;5068089;28;20053;-60
2022/05/03 05:02:57;;;;;;;14.32;7.30;;;;;;;;;;5068093;28;20634;-60
2022/05/03 05:05:23;;;;;;;14.13;7.32;;;;;;;;;;5068173;28;20088;-60
2022/05/03 05:07:50;;;;;;;14.45;8.07;;;;;;;;;;5068032;28;20076;-60
2022/05/03 05:10:26;;;;;;;14.77;7.93;;;;;;;;;;5068595;28;20575;-60
2022/05/03 05:12:54;;;;;;;14.95;8.75;;;;;;;;;;5068254;28;20063;-60
2022/05/03 05:15:23;;;;;;;16.48;9.20;;;;;;;;;;5067889;28;20057;-60
2022/05/03 05:17:53;;;;;;;15.10;8.25;;;;;;;;;;5068672;28;20149;-60
2022/05/03 05:20:20;;;;;;;17.05;9.35;;;;;;;;;;5067681;28;20057;-60
2022/05/03 05:22:46;;;;;;;15.48;9.35;;;;;;;;;;5067881;28;20146;-60
2022/05/03 05:25:32;;;;;;;16.88;9.52;;;;;;;;;;5068361;28;20048;-60
2022/05/03 05:27:59;;;;;;;16.05;9.32;;;;;;;;;;5068118;28;20132;-60
2022/05/03 05:30:26;;;;;;;20.35;10.75;;;;;;;;;;5068131;28;20151;-60
2022/05/03 05:32:53;;;;;;;17.40;10.73;;;;;;;;;;5067981;28;20131;-60
2022/05/03 05:35:19;;;;;;;16.85;9.98;;;;;;;;;;5067692;28;20519;-60
2022/05/03 05:37:46;;;;;;;16.55;9.90;;;;;;;;;;5067959;28;20057;-60
2022/05/03 05:40:12;;;;;;;19.05;10.75;;;;;;;;;;5066906;28;20313;-60
2022/05/03 05:42:38;;;;;;;15.98;9.50;;;;;;;;;;5068141;28;20088;-60
2022/05/03 05:45:05;;;;;;;17.38;9.90;;;;;;;;;;5067999;28;20137;-60
2022/05/03 05:47:31;;;;;;;16.67;8.77;;;;;;;;;;5066778;28;20107;-60
2022/05/03 05:49:58;;;;;;;16.77;9.52;;;;;;;;;;5067221;28;20115;-60
2022/05/03 05:55:10;;;;;;;18.83;10.20;;;;;;;;;;5067310;28;20545;-60
2022/05/03 05:57:36;;;;;;;20.00;10.82;;;;;;;;;;5068072;28;20505;-60
2022/05/03 06:00:03;;;;;;;23.73;12.27;;;;;;;;;;5067386;28;20057;-60
2022/05/03 06:02:29;;;;;;;17.38;10.60;;;;;;;;;;5067324;28;20085;-60
2022/05/03 06:04:55;;;;;;;20.63;11.95;;;;;;;;;;5067180;28;20507;-60
2022/05/03 06:07:22;;;;;;;20.38;12.15;;;;;;;;;;5067405;28;20518;-59
2022/05/03 06:09:48;;;;;;;18.75;11.80;;;;;;;;;;5066485;28;20985;-60
2022/05/03 06:12:15;;;;;;;22.20;13.27;;;;;;;;;;5067428;28;20053;-60
2022/05/03 06:14:42;;;;;;;23.45;14.52;;;;;;;;;;5067354;28;20080;-60
2022/05/03 06:17:08;;;;;;;24.73;14.80;;;;;;;;;;5066836;28;20061;-60
2022/05/03 06:19:34;;;;;;;26.30;15.48;;;;;;;;;;5067508;28;20420;-60
2022/05/03 06:22:01;;;;;;;27.38;15.75;;;;;;;;;;5065952;28;20131;-60
2022/05/03 06:24:27;;;;;;;31.05;17.88;;;;;;;;;;5066400;28;20087;-60
2022/05/03 06:26:54;;;;;;;27.88;17.10;;;;;;;;;;5067164;28;20138;-60
2022/05/03 06:29:21;;;;;;;31.15;17.30;;;;;;;;;;5066910;28;20581;-57
2022/05/03 06:31:48;;;;;;;34.50;20.02;;;;;;;;;;5066461;28;20581;-57
2022/05/03 06:34:14;;;;;;;35.47;18.95;;;;;;;;;;5066708;28;20055;-58
2022/05/03 06:36:40;;;;;;;32.08;19.98;;;;;;;;;;5067269;28;20114;-58
2022/05/03 06:39:07;;;;;;;34.03;21.08;;;;;;;;;;5067546;28;20140;-58
2022/05/03 06:41:33;;;;;;;37.63;21.23;;;;;;;;;;5065120;28;20091;-56
2022/05/03 06:44:00;;;;;;;35.70;21.48;;;;;;;;;;5060768;28;20092;-60
2022/05/03 06:46:27;;;;;;;33.08;20.17;;;;;;;;;;5068590;28;20133;-60
2022/05/03 06:48:54;;;;;;;33.25;20.05;;;;;;;;;;5069230;28;20057;-60
2022/05/03 06:51:21;;;;;;;36.25;20.90;;;;;;;;;;5065308;28;20821;-59
2022/05/03 06:53:47;;;;;;;31.55;20.02;;;;;;;;;;5050869;28;20136;-60
2022/05/03 06:56:14;;;;;;;33.33;20.35;;;;;;;;;;5064988;28;20142;-60
2022/05/03 06:58:42;;;;;;;37.20;20.45;;;;;;;;;;5065255;28;20798;-60
2022/05/03 07:01:09;;;;;;;32.63;20.05;;;;;;;;;;5067645;28;20140;-60
2022/05/03 07:03:36;;;;;;;33.17;20.00;;;;;;;;;;5076924;28;20052;-60
2022/05/03 07:06:03;;;;;;;31.17;19.42;;;;;;;;;;5054822;28;20069;-60
2022/05/03 07:08:30;;;;;;;31.50;19.85;;;;;;;;;;5066723;28;20839;-61
2022/05/03 07:10:56;;;;;;;32.15;20.42;;;;;;;;;;5050512;28;20404;-61
2022/05/03 07:13:26;;;;;;;71.40;23.23;;;;;;;;;;5061635;28;20091;-60
2022/05/03 07:15:53;;;;;;;33.10;19.52;;;;;;;;;;5057369;28;20140;-60
2022/05/03 07:23:51;;;;;;;37.95;19.80;;;;;;;;;;5057308;28;20053;-60
2022/05/03 07:26:17;;;;;;;34.60;21.13;;;;;;;;;;5070117;28;20475;-60
2022/05/03 07:28:48;;;;;;;34.53;21.05;;;;;;;;;;5069574;28;20068;-61
2022/05/03 07:31:16;;;;;;;40.60;22.95;;;;;;;;;;5069986;28;20064;-60
2022/05/03 07:33:42;;;;;;;33.65;21.33;;;;;;;;;;5070497;28;20048;-60
2022/05/03 07:36:09;;;;;;;33.17;20.65;;;;;;;;;;5069336;28;20073;-60
2022/05/03 07:38:35;;;;;;;33.38;21.00;;;;;;;;;;5069835;28;20068;-61
2022/05/03 07:41:02;;;;;;;31.92;20.58;;;;;;;;;;5078999;28;20044;-60
2022/05/03 07:43:28;;;;;;;104.47;26.00;;;;;;;;;;5077923;28;20553;-61
2022/05/03 07:45:55;;;;;;;38.55;21.40;;;;;;;;;;5058530;28;20138;-66
2022/05/03 07:48:21;;;;;;;33.88;20.67;;;;;;;;;;5048821;28;20165;-61
2022/05/03 07:50:48;;;;;;;36.95;21.02;;;;;;;;;;5049360;28;20133;-60
2022/05/03 07:53:14;;;;;;;33.70;21.45;;;;;;;;;;5049765;28;20057;-60
2022/05/03 07:55:43;;;;;;;39.22;22.95;;;;;;;;;;5048826;28;20053;-61
2022/05/03 07:58:10;;;;;;;35.22;20.85;;;;;;;;;;5048763;28;20172;-60
2022/05/03 08:00:36;;;;;;;31.08;20.00;;;;;;;;;;5049237;28;20077;-60
2022/05/03 08:03:03;;;;;;;35.20;21.52;;;;;;;;;;5049292;28;20073;-61
2022/05/03 08:05:29;;;;;;;36.28;19.83;;;;;;;;;;5049177;28;20049;-60
2022/05/03 08:07:55;;;;;;;33.25;20.38;;;;;;;;;;5048675;28;20061;-61
2022/05/03 08:10:22;;;;;;;34.53;20.95;;;;;;;;;;5048155;28;20100;-62
2022/05/03 08:12:51;;;;;;;32.13;20.30;;;;;;;;;;5049205;28;20087;-60
2022/05/03 08:15:18;;;;;;;31.38;19.73;;;;;;;;;;5048725;28;20057;-60
2022/05/03 08:17:44;;;;;;;32.38;19.40;;;;;;;;;;5048475;28;20086;-61
2022/05/03 08:20:12;;;;;;;29.75;19.45;;;;;;;;;;5048765;28;20556;-60
2022/05/03 08:22:39;;;;;;;29.35;19.40;;;;;;;;;;5048938;28;20089;-61
2022/05/03 08:25:06;;;;;;;33.55;19.48;;;;;;;;;;5049661;28;20081;-60
2022/05/03 08:27:36;;;;;;;36.10;20.98;;;;;;;;;;5048685;28;20049;-61
2022/05/03 08:30:02;;;;;;;32.65;20.23;;;;;;;;;;5048621;28;20081;-60
2022/05/03 08:32:29;;;;;;;32.92;20.35;;;;;;;;;;5048164;28;20113;-61
2022/05/03 08:34:55;;;;;;;35.80;20.25;;;;;;;;;;5048631;28;20118;-61
2022/05/03 08:42:52;;;;;;;34.65;21.48;;;;;;;;;;5048490;28;20081;-60
2022/05/03 08:45:18;;;;;;;34.05;21.30;;;;;;;;;;5047820;28;20091;-61
2022/05/03 08:47:46;;;;;;;33.38;21.48;;;;;;;;;;5048335;28;20057;-60
2022/05/03 08:50:13;;;;;;;34.40;21.47;;;;;;;;;;5048118;28;20062;-61
2022/05/03 08:52:39;;;;;;;31.17;20.23;;;;;;;;;;5048552;28;20145;-61
2022/05/03 08:55:06;;;;;;;30.98;20.17;;;;;;;;;;5048663;28;20476;-62
2022/05/03 08:57:33;;;;;;;34.78;21.45;;;;;;;;;;5047733;28;20131;-60
2022/05/03 08:59:59;;;;;;;35.28;22.08;;;;;;;;;;5047524;28;20140;-61
2022/05/03 09:02:26;;;;;;;37.30;21.42;;;;;;;;;;5048367;28;20084;-61
2022/05/03 09:04:52;;;;;;;34.35;21.20;;;;;;;;;;5048129;28;20057;-61
2022/05/03 09:07:20;;;;;;;35.83;20.10;;;;;;;;;;5047833;28;20140;-61
2022/05/03 09:09:47;;;;;;;33.00;20.77;;;;;;;;;;5048633;28;20061;-61
2022/05/03 09:12:27;;;;;;;32.50;20.60;;;;;;;;;;5047554;28;20141;-61
2022/05/03 09:14:56;;;;;;;34.95;20.80;;;;;;;;;;5048002;28;20143;-61
2022/05/03 09:17:42;;;;;;;32.10;19.23;;;;;;;;;;5048097;28;20091;-61
2022/05/03 09:23:46;;;;;;;33.15;19.73;;;;;;;;;;5047312;28;20117;-63
2022/05/03 09:25:48;;;;;;;36.92;22.08;;;;;;;;;;5046547;28;20574;-61
2022/05/03 09:28:14;;;;;;;38.85;22.73;;;;;;;;;;5047119;28;20144;-63
2022/05/03 09:30:51;;;;;;;38.80;22.85;;;;;;;;;;5047580;28;20536;-65
2022/05/03 09:33:18;;;;;;;40.08;24.08;;;;;;;;;;5047634;28;20504;-67
2022/05/03 09:35:45;;;;;;;37.25;21.92;;;;;;;;;;5047796;28;20228;-61
2022/05/03 09:38:11;;;;;;;40.42;22.98;;;;;;;;;;5047756;28;20570;-62
2022/05/03 09:40:41;;;;;;;40.30;22.73;;;;;;;;;;5047169;28;20492;-62
2022/05/03 09:43:08;;;;;;;36.53;20.77;;;;;;;;;;5047333;28;20146;-63
2022/05/03 09:45:36;;;;;;;35.65;21.48;;;;;;;;;;5048020;28;20510;-64
2022/05/03 09:48:03;;;;;;;34.67;21.00;;;;;;;;;;5046938;28;20153;-61
2022/05/03 09:50:29;;;;;;;34.33;20.95;;;;;;;;;;5047035;28;20594;-62
2022/05/03 09:52:56;;;;;;;31.83;18.60;;;;;;;;;;5047170;28;20058;-62
2022/05/03 09:55:30;;;;;;;32.30;19.73;;;;;;;;;;5047936;28;20575;-62
2022/05/03 09:57:59;;;;;;;33.70;19.83;;;;;;;;;;5047568;28;20093;-61
2022/05/03 10:00:26;;;;;;;33.85;19.90;;;;;;;;;;5047736;28;20176;-61
2022/05/03 10:02:53;;;;;;;33.67;19.85;;;;;;;;;;5047864;28;20120;-60
2022/05/03 10:05:21;;;;;;;35.75;20.60;;;;;;;;;;5047403;28;20045;-60
2022/05/03 10:07:50;;;;;;;29.15;17.90;;;;;;;;;;5046946;28;20107;-61
2022/05/03 10:10:17;;;;;;;35.65;20.02;;;;;;;;;;5046778;28;20065;-61
2022/05/03 10:12:44;;;;;;;32.83;20.50;;;;;;;;;;5046927;28;20092;-61
2022/05/03 10:15:11;;;;;;;30.30;19.13;;;;;;;;;;5046136;28;20224;-61
2022/05/03 10:20:40;;;;;;;30.17;18.20;;;;;;;;;;5047422;28;20081;-61
2022/05/03 10:23:19;;;;;;;32.90;19.13;;;;;;;;;;5046734;28;20053;-61
2022/05/03 10:25:45;;;;;;;32.85;19.10;;;;;;;;;;5047686;28;20606;-61
2022/05/03 10:28:12;;;;;;;30.83;18.20;;;;;;;;;;5047374;28;20054;-61
2022/05/03 10:30:39;;;;;;;33.05;18.38;;;;;;;;;;5046803;28;20125;-61
2022/05/03 10:33:20;;;;;;;33.95;19.33;;;;;;;;;;5046458;28;20092;-61
2022/05/03 10:35:47;;;;;;;32.33;18.75;;;;;;;;;;5047128;28;20125;-61
2022/05/03 10:38:14;;;;;;;30.35;18.27;;;;;;;;;;5066245;28;20180;-61
2022/05/03 10:40:41;;;;;;;31.08;17.42;;;;;;;;;;5070598;28;20412;-61
2022/05/03 10:43:12;;;;;;;27.50;16.75;;;;;;;;;;5081260;28;20057;-62
2022/05/03 10:45:48;;;;;;;27.90;16.37;;;;;;;;;;5070597;28;20109;-62
2022/05/03 10:48:43;;;;;;;30.08;17.35;;;;;;;;;;5069991;28;20300;-63
2022/05/03 10:51:11;;;;;;;29.90;16.88;;;;;;;;;;5065869;28;20095;-63
2022/05/03 10:53:41;;;;;;;26.10;16.10;;;;;;;;;;5069835;28;20049;-62
2022/05/03 10:56:09;;;;;;;28.13;16.23;;;;;;;;;;5070457;28;20272;-62
2022/05/03 10:58:36;;;;;;;29.52;17.08;;;;;;;;;;5070109;28;20061;-62
2022/05/03 11:01:04;;;;;;;27.40;16.30;;;;;;;;;;5070314;28;20496;-62
2022/05/03 11:03:31;;;;;;;31.20;18.13;;;;;;;;;;5069777;28;20573;-62
2022/05/03 11:06:15;;;;;;;28.95;17.70;;;;;;;;;;5062110;28;20292;-62
2022/05/03 11:08:57;;;;;;;27.33;16.30;;;;;;;;;;5062018;28;20604;-62
2022/05/03 11:11:36;;;;;;;29.17;17.13;;;;;;;;;;5070012;28;20184;-62
2022/05/03 11:14:02;;;;;;;30.60;17.45;;;;;;;;;;5074230;28;20139;-61
2022/05/03 11:16:34;;;;;;;33.53;19.10;;;;;;;;;;5065622;28;20064;-62
2022/05/03 11:19:08;;;;;;;34.72;18.58;;;;;;;;;;5067146;28;20064;-62
2022/05/03 11:21:34;;;;;;;37.15;20.75;;;;;;;;;;5071618;28;20133;-62
2022/05/03 11:24:01;;;;;;;47.60;20.65;;;;;;;;;;5063243;28;20057;-62
2022/05/03 11:26:27;;;;;;;38.75;19.40;;;;;;;;;;5067924;28;20049;-62
2022/05/03 11:28:57;;;;;;;39.55;20.85;;;;;;;;;;5076309;28;20053;-62
2022/05/03 11:31:25;;;;;;;31.23;17.95;;;;;;;;;;5065545;28;20978;-62
2022/05/03 11:33:52;;;;;;;;;;;;;;;;;;5062915;28;20064;-62
2022/05/03 11:36:19;;;;;;;32.90;17.98;;;;;;;;;;5061070;28;45485;-62
2022/05/03 11:38:49;;;;;;;34.70;18.20;;;;;;;;;;5061835;28;20135;-62
2022/05/03 11:41:19;;;;;;;28.85;16.42;;;;;;;;;;5058229;28;20052;-62
2022/05/03 11:43:47;;;;;;;31.52;16.30;;;;;;;;;;5070321;28;20152;-62
2022/05/03 11:46:17;;;;;;;28.98;15.57;;;;;;;;;;5055895;28;20170;-62
2022/05/03 11:48:43;;;;;;;26.70;14.75;;;;;;;;;;5048303;28;20511;-62
2022/05/03 11:56:44;;;;;;;22.10;12.98;;;;;;;;;;5049848;28;20061;-62
2022/05/03 11:59:10;;;;;;;24.10;11.95;;;;;;;;;;5069203;28;20590;-63
2022/05/03 12:01:36;;;;;;;23.40;11.93;;;;;;;;;;5069557;28;20088;-62
2022/05/03 12:04:04;;;;;;;20.70;11.73;;;;;;;;;;5069605;28;20060;-62
2022/05/03 12:06:43;;;;;;;24.17;11.63;;;;;;;;;;5069667;28;20092;-62
2022/05/03 12:09:16;;;;;;;21.95;11.25;;;;;;;;;;5084458;28;20054;-62
2022/05/03 12:14:42;;;;;;;26.35;12.35;;;;;;;;;;5049971;28;20073;-62
2022/05/03 12:17:09;;;;;;;28.27;11.73;;;;;;;;;;5057731;28;20181;-62
2022/05/03 12:19:37;;;;;;;28.48;12.00;;;;;;;;;;5068604;28;20057;-60
2022/05/03 12:22:07;;;;;;;26.25;13.95;;;;;;;;;;5068511;28;20573;-60
2022/05/03 12:24:35;;;;;;;28.13;14.35;;;;;;;;;;5069486;28;20057;-60
2022/05/03 12:27:14;;;;;;;22.67;12.80;;;;;;;;;;5065307;28;20056;-60
2022/05/03 12:29:49;;;;;;;23.98;12.40;;;;;;;;;;5077045;28;20102;-60
2022/05/03 12:32:22;;;;;;;22.52;12.55;;;;;;;;;;5067110;28;20503;-59
2022/05/03 12:34:57;;;;;;;21.50;12.05;;;;;;;;;;5083025;28;20106;-61
2022/05/03 12:37:24;;;;;;;23.17;11.55;;;;;;;;;;5089208;28;20661;-59
2022/05/03 12:39:51;;;;;;;22.13;11.05;;;;;;;;;;5089217;28;20118;-58
2022/05/03 12:42:18;;;;;;;20.63;11.10;;;;;;;;;;5088981;28;20473;-58
2022/05/03 12:44:47;;;;;;;33.00;13.20;;;;;;;;;;5087810;28;20084;-57
2022/05/03 12:47:14;;;;;;;28.52;12.73;;;;;;;;;;5068328;28;20111;-58
2022/05/03 12:49:40;;;;;;;20.65;10.30;;;;;;;;;;5067754;28;20076;-59
2022/05/03 12:52:06;;;;;;;19.33;11.15;;;;;;;;;;5068664;28;20136;-59
2022/05/03 12:54:33;;;;;;;23.52;12.00;;;;;;;;;;5068922;28;20543;-60
2022/05/03 12:59:44;;;;;;;23.60;11.00;;;;;;;;;;5068309;28;20525;-60
2022/05/03 13:02:10;;;;;;;21.08;10.93;;;;;;;;;;5069022;28;20492;-60
2022/05/03 13:04:37;;;;;;;24.38;11.70;;;;;;;;;;5068736;28;20053;-60
2022/05/03 13:07:04;;;;;;;19.83;10.75;;;;;;;;;;5066964;28;20056;-60
2022/05/03 13:09:31;;;;;;;23.15;10.43;;;;;;;;;;5050110;28;20089;-60
2022/05/03 13:11:59;;;;;;;28.48;12.27;;;;;;;;;;5048426;28;20052;-60
2022/05/03 13:14:26;;;;;;;17.30;9.52;;;;;;;;;;5047878;28;20153;-60
2022/05/03 13:16:53;;;;;;;29.00;11.43;;;;;;;;;;5048395;28;20049;-60
2022/05/03 13:19:19;;;;;;;22.05;11.30;;;;;;;;;;5048588;28;20058;-61
2022/05/03 13:21:46;;;;;;;22.33;11.45;;;;;;;;;;5047711;28;20085;-60
2022/05/03 13:24:12;;;;;;;21.02;11.30;;;;;;;;;;5047949;28;20591;-60
2022/05/03 13:26:40;;;;;;;26.08;11.13;;;;;;;;;;5048007;28;20087;-60
2022/05/03 13:29:08;;;;;;;21.65;10.93;;;;;;;;;;5063446;28;20523;-60
2022/05/03 13:31:35;;;;;;;25.17;10.98;;;;;;;;;;5067382;28;20053;-60
2022/05/03 13:34:01;;;;;;;20.55;10.77;;;;;;;;;;5074011;28;20490;-60
2022/05/03 13:41:58;;;;;;;21.88;9.98;;;;;;;;;;5048517;28;20135;-60
2022/05/03 13:44:25;;;;;;;24.63;8.77;;;;;;;;;;5047566;28;20085;-60
2022/05/03 13:46:52;;;;;;;26.75;10.35;;;;;;;;;;5048071;28;20068;-60
2022/05/03 13:49:19;;;;;;;28.90;9.48;;;;;;;;;;5064651;28;20590;-60
2022/05/03 13:51:46;;;;;;;24.25;10.13;;;;;;;;;;5068431;28;20144;-60
2022/05/03 13:54:12;;;;;;;17.50;9.48;;;;;;;;;;5067642;28;20057;-60
2022/05/03 13:56:39;;;;;;;25.33;9.70;;;;;;;;;;5060052;28;20116;-60
2022/05/03 13:59:06;;;;;;;26.45;10.85;;;;;;;;;;5046320;28;20142;-60
2022/05/03 14:01:34;;;;;;;23.40;9.93;;;;;;;;;;5047680;28;20508;-60
2022/05/03 14:04:02;;;;;;;27.63;9.90;;;;;;;;;;5048202;28;20307;-60
2022/05/03 14:06:28;;;;;;;18.45;9.00;;;;;;;;;;5047560;28;20057;-60
2022/05/03 14:08:55;;;;;;;21.20;9.93;;;;;;;;;;5046841;28;20093;-60
2022/05/03 14:11:21;;;;;;;23.35;9.50;;;;;;;;;;5047570;28;20108;-60
2022/05/03 14:13:48;;;;;;;20.13;9.15;;;;;;;;;;5048241;28;20180;-60
2022/05/03 14:16:16;;;;;;;21.10;9.13;;;;;;;;;;5047188;28;20149;-60
2022/05/03 14:18:43;;;;;;;20.75;8.77;;;;;;;;;;5047790;28;20192;-60
2022/05/03 14:21:10;;;;;;;22.13;8.80;;;;;;;;;;5046874;28;20054;-60
2022/05/03 14:23:37;;;;;;;20.20;9.27;;;;;;;;;;5047088;28;20520;-60
2022/05/03 14:26:04;;;;;;;25.45;9.02;;;;;;;;;;5047126;28;20053;-60
2022/05/03 14:28:32;;;;;;;18.90;8.82;;;;;;;;;;5047199;28;20057;-60
2022/05/03 14:30:58;;;;;;;21.25;8.20;;;;;;;;;;5048053;28;20057;-60
2022/05/03 14:33:24;;;;;;;19.40;8.55;;;;;;;;;;5048515;28;20610;-60
2022/05/03 14:35:51;;;;;;;21.98;8.45;;;;;;;;;;5067623;28;20152;-60
2022/05/03 14:38:17;;;;;;;20.92;8.85;;;;;;;;;;5067271;28;20096;-60
2022/05/03 14:40:43;;;;;;;20.60;8.32;;;;;;;;;;5067376;28;20110;-60
2022/05/03 14:43:10;;;;;;;17.83;8.32;;;;;;;;;;5066989;28;20049;-60
2022/05/03 14:45:37;;;;;;;20.92;8.50;;;;;;;;;;5067299;28;20940;-60
2022/05/03 14:48:06;;;;;;;18.13;8.48;;;;;;;;;;5065305;28;20057;-60
2022/05/03 14:50:32;;;;;;;23.75;8.52;;;;;;;;;;5074963;28;20186;-60
2022/05/03 14:52:59;;;;;;;18.48;8.43;;;;;;;;;;5086952;28;20084;-60
2022/05/03 14:55:25;;;;;;;24.13;8.45;;;;;;;;;;5087238;28;20684;-60
2022/05/03 15:03:22;;;;;;;24.30;8.27;;;;;;;;;;5086801;28;20052;-60
2022/05/03 15:05:48;;;;;;;19.25;7.45;;;;;;;;;;5060070;28;20138;-60
2022/05/03 15:08:15;;;;;;;16.90;6.30;;;;;;;;;;5066966;28;20515;-60
2022/05/03 15:10:41;;;;;;;17.27;6.20;;;;;;;;;;5066764;28;20076;-62
2022/05/03 15:13:08;;;;;;;14.43;5.38;;;;;;;;;;5050249;28;20511;-62
2022/05/03 15:15:34;;;;;;;14.43;5.53;;;;;;;;;;5063544;28;20073;-63
2022/05/03 15:18:02;;;;;;;15.88;5.82;;;;;;;;;;5067149;28;20052;-62
2022/05/03 15:20:29;;;;;;;15.93;5.65;;;;;;;;;;5066458;28;20565;-62
2022/05/03 15:25:44;;;;;;;17.13;5.28;;;;;;;;;;5070411;28;20080;-62